ENT150 EDDS-EPKK
Flight info
| Callsign | ENT150 |
|---|---|
| Flight time | 1h 21m |
| Altitude | 34000 |
| Route | DKB9B/25 DKB N869 AMOSA/N0459F350 N869 ANELA Z715 KULOK L984 OKG DCT ETUDA DCT PADKA |
| Aircraft | B738/M-SDE2E3FGHIRWXY/LB1 |
Departure
| Time | 2026-05-07 14:49 |
|---|---|
| Airport | Stuttgart Airport (EDDS) |
Arrival
| Time | 2026-05-07 16:10 |
|---|---|
| Airport | Kraków John Paul II International Airport (EPKK) |
| Time | Latitude | Longitude | Altitude | Speed | Heading |
|---|---|---|---|---|---|
| 2026-05-07 14:28 | 48.68802 | 9.19676 | 1293 ft | 0 kts | 165° |
| 2026-05-07 14:41 | 48.68783 | 9.19683 | 1292 ft | 6 kts | 165° |
| 2026-05-07 14:41 | 48.68739 | 9.19713 | 1289 ft | 3 kts | 121° |
| 2026-05-07 14:42 | 48.68739 | 9.19763 | 1288 ft | 6 kts | 72° |
| 2026-05-07 14:42 | 48.68757 | 9.19850 | 1287 ft | 11 kts | 71° |
| 2026-05-07 14:42 | 48.68810 | 9.19974 | 1287 ft | 17 kts | 52° |
| 2026-05-07 14:42 | 48.68859 | 9.20153 | 1283 ft | 21 kts | 74° |
| 2026-05-07 14:43 | 48.68901 | 9.20373 | 1278 ft | 23 kts | 74° |
| 2026-05-07 14:43 | 48.68947 | 9.20615 | 1272 ft | 25 kts | 74° |
| 2026-05-07 14:43 | 48.68994 | 9.20864 | 1274 ft | 24 kts | 74° |
| 2026-05-07 14:43 | 48.69039 | 9.21098 | 1263 ft | 23 kts | 73° |
| 2026-05-07 14:44 | 48.69082 | 9.21321 | 1260 ft | 23 kts | 75° |
| 2026-05-07 14:44 | 48.69126 | 9.21559 | 1257 ft | 23 kts | 74° |
| 2026-05-07 14:44 | 48.69170 | 9.21787 | 1248 ft | 23 kts | 74° |
| 2026-05-07 14:44 | 48.69215 | 9.22028 | 1237 ft | 25 kts | 73° |
| 2026-05-07 14:45 | 48.69264 | 9.22284 | 1231 ft | 25 kts | 73° |
| 2026-05-07 14:45 | 48.69312 | 9.22534 | 1227 ft | 25 kts | 73° |
| 2026-05-07 14:45 | 48.69358 | 9.22778 | 1225 ft | 23 kts | 74° |
| 2026-05-07 14:45 | 48.69402 | 9.23011 | 1221 ft | 23 kts | 74° |
| 2026-05-07 14:46 | 48.69445 | 9.23238 | 1216 ft | 23 kts | 74° |
| 2026-05-07 14:46 | 48.69490 | 9.23480 | 1208 ft | 22 kts | 74° |
| 2026-05-07 14:46 | 48.69532 | 9.23697 | 1203 ft | 21 kts | 73° |
| 2026-05-07 14:46 | 48.69574 | 9.23909 | 1200 ft | 21 kts | 73° |
| 2026-05-07 14:47 | 48.69610 | 9.24116 | 1194 ft | 18 kts | 86° |
| 2026-05-07 14:47 | 48.69554 | 9.24285 | 1190 ft | 18 kts | 139° |
| 2026-05-07 14:47 | 48.69437 | 9.24325 | 1187 ft | 15 kts | 194° |
| 2026-05-07 14:47 | 48.69370 | 9.24213 | 1190 ft | 14 kts | 250° |
| 2026-05-07 14:48 | 48.69353 | 9.24126 | 1190 ft | 6 kts | 254° |
| 2026-05-07 14:48 | 48.69342 | 9.24064 | 1191 ft | 6 kts | 253° |
| 2026-05-07 14:48 | 48.69328 | 9.23995 | 1193 ft | 10 kts | 254° |
| 2026-05-07 14:48 | 48.69255 | 9.23605 | 1204 ft | 74 kts | 254° |
| 2026-05-07 14:49 | 48.69054 | 9.22551 | 1228 ft | 136 kts | 254° |
| 2026-05-07 14:49 | 48.68777 | 9.20952 | 1560 ft | 164 kts | 256° |
| 2026-05-07 14:49 | 48.68423 | 9.19325 | 2515 ft | 163 kts | 255° |
| 2026-05-07 14:49 | 48.68100 | 9.17722 | 3454 ft | 158 kts | 256° |
| 2026-05-07 14:50 | 48.67780 | 9.16069 | 4218 ft | 165 kts | 256° |
| 2026-05-07 14:50 | 48.67460 | 9.14383 | 4969 ft | 169 kts | 255° |
| 2026-05-07 14:50 | 48.67131 | 9.12689 | 5706 ft | 176 kts | 255° |
| 2026-05-07 14:50 | 48.67053 | 9.10726 | 5960 ft | 203 kts | 285° |
| 2026-05-07 14:51 | 48.67837 | 9.08807 | 6174 ft | 229 kts | 308° |
| 2026-05-07 14:51 | 48.68949 | 9.06972 | 6603 ft | 244 kts | 321° |
| 2026-05-07 14:51 | 48.70565 | 9.05835 | 7044 ft | 267 kts | 340° |
| 2026-05-07 14:51 | 48.72364 | 9.04961 | 7727 ft | 275 kts | 339° |
| 2026-05-07 14:52 | 48.74189 | 9.04086 | 8564 ft | 278 kts | 344° |
| 2026-05-07 14:52 | 48.76157 | 9.04054 | 9370 ft | 289 kts | 12° |
| 2026-05-07 14:52 | 48.77927 | 9.05421 | 10156 ft | 297 kts | 40° |
| 2026-05-07 14:52 | 48.79347 | 9.07901 | 10578 ft | 319 kts | 52° |
| 2026-05-07 14:53 | 48.80646 | 9.10699 | 10935 ft | 336 kts | 54° |
| 2026-05-07 14:53 | 48.81970 | 9.13667 | 11661 ft | 340 kts | 55° |
| 2026-05-07 14:53 | 48.83302 | 9.16642 | 12530 ft | 342 kts | 54° |
| 2026-05-07 14:53 | 48.84658 | 9.19631 | 13314 ft | 347 kts | 54° |
| 2026-05-07 14:54 | 48.85958 | 9.22465 | 14084 ft | 349 kts | 53° |
| 2026-05-07 14:54 | 48.87357 | 9.25495 | 14837 ft | 354 kts | 53° |
| 2026-05-07 14:54 | 48.88786 | 9.28582 | 15546 ft | 360 kts | 53° |
| 2026-05-07 14:54 | 48.90234 | 9.31715 | 16304 ft | 364 kts | 53° |
| 2026-05-07 14:55 | 48.91628 | 9.34953 | 17035 ft | 370 kts | 61° |
| 2026-05-07 14:55 | 48.92683 | 9.38560 | 17762 ft | 376 kts | 67° |
| 2026-05-07 14:55 | 48.93631 | 9.42297 | 18437 ft | 383 kts | 68° |
| 2026-05-07 14:55 | 48.94567 | 9.46116 | 19084 ft | 387 kts | 68° |
| 2026-05-07 14:56 | 48.95515 | 9.49968 | 19780 ft | 389 kts | 68° |
| 2026-05-07 14:56 | 48.96481 | 9.53834 | 20455 ft | 392 kts | 68° |
| 2026-05-07 14:56 | 48.97467 | 9.57728 | 21130 ft | 395 kts | 67° |
| 2026-05-07 14:56 | 48.98467 | 9.61645 | 21764 ft | 399 kts | 67° |
| 2026-05-07 14:57 | 48.99484 | 9.65610 | 22390 ft | 403 kts | 67° |
| 2026-05-07 14:57 | 49.00511 | 9.69608 | 23024 ft | 407 kts | 67° |
| 2026-05-07 14:57 | 49.01547 | 9.73643 | 23635 ft | 410 kts | 67° |
| 2026-05-07 14:57 | 49.02589 | 9.77707 | 24158 ft | 413 kts | 67° |
| 2026-05-07 14:58 | 49.03623 | 9.81748 | 24686 ft | 415 kts | 67° |
| 2026-05-07 14:58 | 49.04673 | 9.85860 | 25207 ft | 417 kts | 67° |
| 2026-05-07 14:58 | 49.05730 | 9.90008 | 25712 ft | 420 kts | 67° |
| 2026-05-07 14:58 | 49.06788 | 9.94167 | 26208 ft | 423 kts | 67° |
| 2026-05-07 14:59 | 49.07853 | 9.98363 | 26710 ft | 425 kts | 67° |
| 2026-05-07 14:59 | 49.08921 | 10.02577 | 27194 ft | 427 kts | 67° |
| 2026-05-07 14:59 | 49.09993 | 10.06814 | 27659 ft | 430 kts | 67° |
| 2026-05-07 14:59 | 49.11074 | 10.11099 | 28131 ft | 432 kts | 67° |
| 2026-05-07 15:00 | 49.12157 | 10.15393 | 28595 ft | 435 kts | 67° |
| 2026-05-07 15:00 | 49.13247 | 10.19726 | 29049 ft | 437 kts | 67° |
| 2026-05-07 15:00 | 49.14495 | 10.23925 | 29551 ft | 434 kts | 55° |
| 2026-05-07 15:00 | 49.16418 | 10.27430 | 30211 ft | 426 kts | 43° |
| 2026-05-07 15:01 | 49.18530 | 10.30581 | 30753 ft | 423 kts | 41° |
| 2026-05-07 15:01 | 49.20623 | 10.33698 | 31109 ft | 426 kts | 42° |
| 2026-05-07 15:01 | 49.22724 | 10.36906 | 31455 ft | 428 kts | 43° |
| 2026-05-07 15:01 | 49.24817 | 10.40143 | 31897 ft | 427 kts | 43° |
| 2026-05-07 15:02 | 49.26922 | 10.43369 | 32362 ft | 426 kts | 43° |
| 2026-05-07 15:02 | 49.29017 | 10.46567 | 32762 ft | 427 kts | 43° |
| 2026-05-07 15:02 | 49.31130 | 10.49791 | 33131 ft | 428 kts | 43° |
| 2026-05-07 15:02 | 49.33244 | 10.53027 | 33494 ft | 429 kts | 43° |
| 2026-05-07 15:03 | 49.35353 | 10.56274 | 33856 ft | 430 kts | 44° |
| 2026-05-07 15:03 | 49.37424 | 10.59596 | 34082 ft | 433 kts | 45° |
| 2026-05-07 15:03 | 49.41556 | 10.66345 | 34059 ft | 435 kts | 45° |
| 2026-05-07 15:04 | 49.45731 | 10.72948 | 34041 ft | 427 kts | 44° |
| 2026-05-07 15:04 | 49.49903 | 10.79486 | 34060 ft | 429 kts | 44° |
| 2026-05-07 15:05 | 49.54070 | 10.86076 | 34055 ft | 431 kts | 45° |
| 2026-05-07 15:05 | 49.58251 | 10.92710 | 34054 ft | 432 kts | 45° |
| 2026-05-07 15:06 | 49.62444 | 10.99378 | 34052 ft | 433 kts | 45° |
| 2026-05-07 15:06 | 49.66640 | 11.06065 | 34045 ft | 434 kts | 45° |
| 2026-05-07 15:07 | 49.70828 | 11.12760 | 34046 ft | 433 kts | 45° |
| 2026-05-07 15:07 | 49.74987 | 11.19422 | 34040 ft | 432 kts | 45° |
| 2026-05-07 15:08 | 49.79449 | 11.25584 | 34042 ft | 429 kts | 35° |
| 2026-05-07 15:08 | 49.84308 | 11.30923 | 34031 ft | 428 kts | 34° |
| 2026-05-07 15:09 | 49.89137 | 11.36308 | 34031 ft | 427 kts | 35° |
| 2026-05-07 15:09 | 49.93864 | 11.41878 | 34016 ft | 427 kts | 42° |
| 2026-05-07 15:10 | 49.98043 | 11.48432 | 34022 ft | 427 kts | 45° |
| 2026-05-07 15:10 | 50.02189 | 11.55049 | 34028 ft | 427 kts | 44° |
| 2026-05-07 15:11 | 50.06038 | 11.62035 | 34019 ft | 428 kts | 63° |
| 2026-05-07 15:11 | 50.07089 | 11.66351 | 34024 ft | 428 kts | 78° |
| 2026-05-07 15:11 | 50.07386 | 11.70957 | 34034 ft | 427 kts | 90° |
| 2026-05-07 15:12 | 50.07282 | 11.78657 | 34027 ft | 428 kts | 92° |
| 2026-05-07 15:12 | 50.07101 | 11.89455 | 34018 ft | 430 kts | 91° |
| 2026-05-07 15:13 | 50.07025 | 11.97278 | 34017 ft | 431 kts | 91° |
| 2026-05-07 15:13 | 50.06946 | 12.06613 | 34018 ft | 432 kts | 91° |
| 2026-05-07 15:14 | 50.06846 | 12.15910 | 34014 ft | 432 kts | 92° |
| 2026-05-07 15:14 | 50.06724 | 12.25274 | 34009 ft | 432 kts | 92° |
| 2026-05-07 15:15 | 50.06598 | 12.34643 | 34004 ft | 432 kts | 92° |
| 2026-05-07 15:15 | 50.06489 | 12.44000 | 34000 ft | 432 kts | 91° |
| 2026-05-07 15:16 | 50.06522 | 12.53313 | 34002 ft | 432 kts | 90° |
| 2026-05-07 15:16 | 50.06582 | 12.62657 | 33997 ft | 432 kts | 90° |
| 2026-05-07 15:17 | 50.06623 | 12.72013 | 33997 ft | 431 kts | 91° |
| 2026-05-07 15:17 | 50.06645 | 12.81297 | 33986 ft | 431 kts | 91° |
| 2026-05-07 15:18 | 50.06655 | 12.90619 | 33992 ft | 430 kts | 91° |
| 2026-05-07 15:18 | 50.06657 | 12.99942 | 33998 ft | 430 kts | 91° |
| 2026-05-07 15:19 | 50.06652 | 13.09258 | 33992 ft | 430 kts | 91° |
| 2026-05-07 15:19 | 50.06639 | 13.18562 | 33987 ft | 430 kts | 92° |
| 2026-05-07 15:20 | 50.06620 | 13.27888 | 33986 ft | 430 kts | 92° |
| 2026-05-07 15:20 | 50.06593 | 13.37209 | 33990 ft | 431 kts | 92° |
| 2026-05-07 15:21 | 50.06558 | 13.46481 | 33982 ft | 431 kts | 92° |
| 2026-05-07 15:21 | 50.06516 | 13.55822 | 33988 ft | 431 kts | 92° |
| 2026-05-07 15:22 | 50.06466 | 13.65158 | 33974 ft | 431 kts | 92° |
| 2026-05-07 15:22 | 50.06409 | 13.74496 | 33974 ft | 431 kts | 92° |
| 2026-05-07 15:23 | 50.06345 | 13.83819 | 33976 ft | 431 kts | 93° |
| 2026-05-07 15:23 | 50.06273 | 13.93131 | 33974 ft | 430 kts | 93° |
| 2026-05-07 15:24 | 50.06194 | 14.02375 | 33963 ft | 430 kts | 93° |
| 2026-05-07 15:24 | 50.06107 | 14.11681 | 33965 ft | 429 kts | 94° |
| 2026-05-07 15:25 | 50.06013 | 14.20969 | 33964 ft | 428 kts | 94° |
| 2026-05-07 15:25 | 50.05913 | 14.30229 | 33964 ft | 428 kts | 94° |
| 2026-05-07 15:26 | 50.05805 | 14.39479 | 33969 ft | 427 kts | 94° |
| 2026-05-07 15:26 | 50.05689 | 14.48726 | 33968 ft | 427 kts | 94° |
| 2026-05-07 15:27 | 50.05565 | 14.57978 | 33959 ft | 428 kts | 94° |
| 2026-05-07 15:27 | 50.05434 | 14.67263 | 33968 ft | 428 kts | 95° |
| 2026-05-07 15:28 | 50.05297 | 14.76474 | 33963 ft | 429 kts | 95° |
| 2026-05-07 15:28 | 50.05151 | 14.85767 | 33963 ft | 428 kts | 95° |
| 2026-05-07 15:29 | 50.04999 | 14.95038 | 33968 ft | 428 kts | 95° |
| 2026-05-07 15:29 | 50.04838 | 15.04301 | 33967 ft | 428 kts | 95° |
| 2026-05-07 15:30 | 50.04670 | 15.13575 | 33957 ft | 428 kts | 96° |
| 2026-05-07 15:30 | 50.04497 | 15.22772 | 33962 ft | 428 kts | 96° |
| 2026-05-07 15:31 | 50.04315 | 15.32031 | 33957 ft | 428 kts | 96° |
| 2026-05-07 15:31 | 50.04125 | 15.41284 | 33942 ft | 428 kts | 97° |
| 2026-05-07 15:32 | 50.03929 | 15.50541 | 33943 ft | 428 kts | 97° |
| 2026-05-07 15:32 | 50.03724 | 15.59811 | 33941 ft | 428 kts | 97° |
| 2026-05-07 15:33 | 50.03513 | 15.69071 | 33785 ft | 429 kts | 97° |
| 2026-05-07 15:33 | 50.03404 | 15.73698 | 33571 ft | 427 kts | 98° |
| 2026-05-07 15:33 | 50.03296 | 15.78271 | 33365 ft | 426 kts | 98° |
| 2026-05-07 15:34 | 50.03185 | 15.82869 | 33137 ft | 426 kts | 98° |
| 2026-05-07 15:34 | 50.03070 | 15.87489 | 32977 ft | 428 kts | 98° |
| 2026-05-07 15:34 | 50.02837 | 15.96726 | 32935 ft | 426 kts | 98° |
| 2026-05-07 15:35 | 50.02597 | 16.05949 | 32940 ft | 426 kts | 98° |
| 2026-05-07 15:35 | 50.02349 | 16.15166 | 32943 ft | 427 kts | 99° |
| 2026-05-07 15:36 | 50.02093 | 16.24430 | 32942 ft | 428 kts | 99° |
| 2026-05-07 15:36 | 50.01830 | 16.33687 | 32949 ft | 428 kts | 99° |
| 2026-05-07 15:37 | 50.01564 | 16.42909 | 32930 ft | 422 kts | 99° |
| 2026-05-07 15:37 | 50.01299 | 16.51818 | 32914 ft | 411 kts | 100° |
| 2026-05-07 15:38 | 50.00971 | 16.60693 | 32916 ft | 412 kts | 101° |
| 2026-05-07 15:38 | 50.00618 | 16.69600 | 32935 ft | 413 kts | 101° |
| 2026-05-07 15:39 | 50.00267 | 16.78481 | 32946 ft | 411 kts | 101° |
| 2026-05-07 15:39 | 49.99912 | 16.87355 | 32933 ft | 411 kts | 101° |
| 2026-05-07 15:40 | 49.99552 | 16.96228 | 32947 ft | 411 kts | 101° |
| 2026-05-07 15:40 | 49.99369 | 17.00664 | 32830 ft | 414 kts | 101° |
| 2026-05-07 15:40 | 49.99181 | 17.05142 | 32536 ft | 414 kts | 101° |
| 2026-05-07 15:41 | 49.98998 | 17.09542 | 32271 ft | 411 kts | 101° |
| 2026-05-07 15:41 | 49.98815 | 17.13938 | 32003 ft | 406 kts | 102° |
| 2026-05-07 15:41 | 49.98633 | 17.18287 | 31735 ft | 402 kts | 102° |
| 2026-05-07 15:41 | 49.98448 | 17.22602 | 31486 ft | 399 kts | 102° |
| 2026-05-07 15:42 | 49.98262 | 17.26889 | 31220 ft | 397 kts | 102° |
| 2026-05-07 15:42 | 49.98075 | 17.31150 | 30954 ft | 393 kts | 102° |
| 2026-05-07 15:42 | 49.97891 | 17.35356 | 30652 ft | 388 kts | 102° |
| 2026-05-07 15:42 | 49.97705 | 17.39522 | 30300 ft | 386 kts | 102° |
| 2026-05-07 15:43 | 49.97519 | 17.43658 | 29935 ft | 383 kts | 102° |
| 2026-05-07 15:43 | 49.97332 | 17.47776 | 29518 ft | 380 kts | 102° |
| 2026-05-07 15:43 | 49.97146 | 17.51863 | 29172 ft | 376 kts | 102° |
| 2026-05-07 15:43 | 49.96961 | 17.55886 | 28782 ft | 372 kts | 102° |
| 2026-05-07 15:44 | 49.96777 | 17.59877 | 28420 ft | 368 kts | 103° |
| 2026-05-07 15:44 | 49.96593 | 17.63822 | 28044 ft | 365 kts | 103° |
| 2026-05-07 15:44 | 49.96408 | 17.67747 | 27688 ft | 363 kts | 103° |
| 2026-05-07 15:44 | 49.96223 | 17.71652 | 27324 ft | 361 kts | 103° |
| 2026-05-07 15:45 | 49.96037 | 17.75521 | 26959 ft | 358 kts | 103° |
| 2026-05-07 15:45 | 49.95853 | 17.79366 | 26604 ft | 356 kts | 103° |
| 2026-05-07 15:45 | 49.95668 | 17.83193 | 26257 ft | 353 kts | 103° |
| 2026-05-07 15:45 | 49.95483 | 17.86979 | 25911 ft | 351 kts | 103° |
| 2026-05-07 15:46 | 49.95112 | 17.94515 | 25212 ft | 348 kts | 103° |
| 2026-05-07 15:46 | 49.94929 | 17.98191 | 24883 ft | 346 kts | 103° |
| 2026-05-07 15:46 | 49.94743 | 18.01916 | 24540 ft | 345 kts | 103° |
| 2026-05-07 15:47 | 49.94555 | 18.05637 | 24196 ft | 344 kts | 102° |
| 2026-05-07 15:47 | 49.94368 | 18.09321 | 23853 ft | 342 kts | 102° |
| 2026-05-07 15:47 | 49.94181 | 18.13001 | 23518 ft | 341 kts | 102° |
| 2026-05-07 15:47 | 49.93993 | 18.16671 | 23114 ft | 340 kts | 102° |
| 2026-05-07 15:48 | 49.93806 | 18.20325 | 22738 ft | 339 kts | 102° |
| 2026-05-07 15:48 | 49.93617 | 18.23960 | 22380 ft | 337 kts | 102° |
| 2026-05-07 15:48 | 49.93429 | 18.27582 | 22024 ft | 335 kts | 102° |
| 2026-05-07 15:48 | 49.93271 | 18.31178 | 21760 ft | 331 kts | 100° |
| 2026-05-07 15:49 | 49.93166 | 18.34739 | 21434 ft | 330 kts | 99° |
| 2026-05-07 15:49 | 49.93072 | 18.38277 | 21103 ft | 328 kts | 99° |
| 2026-05-07 15:49 | 49.92977 | 18.41800 | 20779 ft | 326 kts | 99° |
| 2026-05-07 15:49 | 49.92876 | 18.45307 | 20458 ft | 325 kts | 99° |
| 2026-05-07 15:50 | 49.92772 | 18.48815 | 20130 ft | 324 kts | 99° |
| 2026-05-07 15:50 | 49.92666 | 18.52289 | 19806 ft | 323 kts | 99° |
| 2026-05-07 15:50 | 49.92558 | 18.55775 | 19486 ft | 322 kts | 98° |
| 2026-05-07 15:50 | 49.92449 | 18.59234 | 19157 ft | 321 kts | 98° |
| 2026-05-07 15:51 | 49.92338 | 18.62685 | 18844 ft | 320 kts | 98° |
| 2026-05-07 15:51 | 49.92227 | 18.66130 | 18557 ft | 318 kts | 98° |
| 2026-05-07 15:51 | 49.92116 | 18.69539 | 18263 ft | 316 kts | 98° |
| 2026-05-07 15:51 | 49.92004 | 18.72946 | 17914 ft | 315 kts | 98° |
| 2026-05-07 15:52 | 49.91891 | 18.76326 | 17574 ft | 314 kts | 97° |
| 2026-05-07 15:52 | 49.91776 | 18.79699 | 17244 ft | 312 kts | 98° |
| 2026-05-07 15:52 | 49.91611 | 18.83024 | 16960 ft | 308 kts | 99° |
| 2026-05-07 15:52 | 49.91422 | 18.86300 | 16639 ft | 306 kts | 99° |
| 2026-05-07 15:53 | 49.91230 | 18.89575 | 16326 ft | 305 kts | 99° |
| 2026-05-07 15:53 | 49.91042 | 18.92839 | 16017 ft | 303 kts | 98° |
| 2026-05-07 15:53 | 49.90857 | 18.96109 | 15701 ft | 302 kts | 98° |
| 2026-05-07 15:53 | 49.90674 | 18.99340 | 15391 ft | 301 kts | 98° |
| 2026-05-07 15:54 | 49.90489 | 19.02600 | 15074 ft | 301 kts | 98° |
| 2026-05-07 15:54 | 49.90448 | 19.05871 | 14554 ft | 310 kts | 87° |
| 2026-05-07 15:54 | 49.90746 | 19.09201 | 14177 ft | 312 kts | 82° |
| 2026-05-07 15:54 | 49.91127 | 19.12513 | 13829 ft | 313 kts | 82° |
| 2026-05-07 15:55 | 49.91515 | 19.15848 | 13472 ft | 312 kts | 82° |
| 2026-05-07 15:55 | 49.91882 | 19.19153 | 13129 ft | 311 kts | 82° |
| 2026-05-07 15:55 | 49.92232 | 19.22455 | 12794 ft | 309 kts | 83° |
| 2026-05-07 15:55 | 49.92568 | 19.25735 | 12478 ft | 307 kts | 83° |
| 2026-05-07 15:56 | 49.92895 | 19.29003 | 12159 ft | 306 kts | 83° |
| 2026-05-07 15:56 | 49.93214 | 19.32229 | 11854 ft | 305 kts | 83° |
| 2026-05-07 15:56 | 49.93532 | 19.35484 | 11528 ft | 304 kts | 83° |
| 2026-05-07 15:56 | 49.93848 | 19.38722 | 11223 ft | 303 kts | 83° |
| 2026-05-07 15:57 | 49.94161 | 19.41952 | 10905 ft | 302 kts | 83° |
| 2026-05-07 15:57 | 49.94367 | 19.44081 | 10700 ft | 301 kts | 83° |
| 2026-05-07 15:57 | 49.94676 | 19.47288 | 10382 ft | 300 kts | 83° |
| 2026-05-07 15:57 | 49.95017 | 19.50481 | 10127 ft | 298 kts | 80° |
| 2026-05-07 15:58 | 49.95445 | 19.53612 | 10008 ft | 296 kts | 79° |
| 2026-05-07 15:58 | 49.95880 | 19.56707 | 9972 ft | 290 kts | 79° |
| 2026-05-07 15:58 | 49.96296 | 19.59717 | 9959 ft | 280 kts | 79° |
| 2026-05-07 15:58 | 49.96692 | 19.62603 | 9943 ft | 268 kts | 79° |
| 2026-05-07 15:59 | 49.97069 | 19.65365 | 9964 ft | 254 kts | 79° |
| 2026-05-07 15:59 | 49.97421 | 19.67958 | 9965 ft | 239 kts | 79° |
| 2026-05-07 15:59 | 49.97758 | 19.70455 | 9898 ft | 231 kts | 80° |
| 2026-05-07 15:59 | 49.98083 | 19.72861 | 9748 ft | 226 kts | 80° |
| 2026-05-07 16:00 | 49.98403 | 19.75233 | 9551 ft | 224 kts | 80° |
| 2026-05-07 16:00 | 49.98727 | 19.77621 | 9357 ft | 225 kts | 79° |
| 2026-05-07 16:00 | 49.99048 | 19.80000 | 9101 ft | 225 kts | 79° |
| 2026-05-07 16:00 | 49.99365 | 19.82338 | 8866 ft | 222 kts | 79° |
| 2026-05-07 16:01 | 49.99687 | 19.84715 | 8534 ft | 223 kts | 79° |
| 2026-05-07 16:01 | 50.00000 | 19.87034 | 8272 ft | 221 kts | 79° |
| 2026-05-07 16:01 | 50.00315 | 19.89355 | 7974 ft | 220 kts | 79° |
| 2026-05-07 16:01 | 50.00630 | 19.91685 | 7692 ft | 218 kts | 79° |
| 2026-05-07 16:02 | 50.00941 | 19.93994 | 7378 ft | 219 kts | 79° |
| 2026-05-07 16:02 | 50.01250 | 19.96287 | 7119 ft | 216 kts | 79° |
| 2026-05-07 16:02 | 50.01560 | 19.98587 | 6808 ft | 217 kts | 79° |
| 2026-05-07 16:02 | 50.01867 | 20.00854 | 6550 ft | 214 kts | 79° |
| 2026-05-07 16:03 | 50.02175 | 20.03127 | 6216 ft | 215 kts | 79° |
| 2026-05-07 16:03 | 50.02484 | 20.05404 | 5951 ft | 213 kts | 79° |
| 2026-05-07 16:03 | 50.02789 | 20.07657 | 5640 ft | 212 kts | 79° |
| 2026-05-07 16:03 | 50.03268 | 20.09806 | 5320 ft | 212 kts | 52° |
| 2026-05-07 16:04 | 50.04421 | 20.11109 | 5026 ft | 204 kts | 11° |
| 2026-05-07 16:04 | 50.05786 | 20.11195 | 4897 ft | 195 kts | 348° |
| 2026-05-07 16:04 | 50.07085 | 20.10806 | 4788 ft | 184 kts | 344° |
| 2026-05-07 16:04 | 50.08284 | 20.10398 | 4664 ft | 181 kts | 344° |
| 2026-05-07 16:05 | 50.09526 | 20.09975 | 4481 ft | 182 kts | 344° |
| 2026-05-07 16:05 | 50.10677 | 20.09252 | 4254 ft | 175 kts | 317° |
| 2026-05-07 16:05 | 50.11371 | 20.07788 | 4103 ft | 168 kts | 289° |
| 2026-05-07 16:05 | 50.11522 | 20.05999 | 4028 ft | 166 kts | 261° |
| 2026-05-07 16:06 | 50.11291 | 20.04249 | 4002 ft | 164 kts | 258° |
| 2026-05-07 16:06 | 50.11086 | 20.02447 | 3703 ft | 174 kts | 259° |
| 2026-05-07 16:06 | 50.10869 | 20.00677 | 3478 ft | 168 kts | 258° |
| 2026-05-07 16:06 | 50.10636 | 19.98966 | 3253 ft | 157 kts | 258° |
| 2026-05-07 16:07 | 50.10407 | 19.97314 | 3053 ft | 148 kts | 256° |
| 2026-05-07 16:07 | 50.10192 | 19.95786 | 2903 ft | 145 kts | 257° |
| 2026-05-07 16:07 | 50.09974 | 19.94256 | 2677 ft | 147 kts | 256° |
| 2026-05-07 16:07 | 50.09757 | 19.92695 | 2491 ft | 142 kts | 257° |
| 2026-05-07 16:08 | 50.09543 | 19.91181 | 2314 ft | 145 kts | 257° |
| 2026-05-07 16:08 | 50.09325 | 19.89622 | 2100 ft | 146 kts | 257° |
| 2026-05-07 16:08 | 50.09114 | 19.88103 | 1873 ft | 142 kts | 257° |
| 2026-05-07 16:08 | 50.08904 | 19.86618 | 1669 ft | 138 kts | 256° |
| 2026-05-07 16:09 | 50.08700 | 19.85156 | 1483 ft | 140 kts | 256° |
| 2026-05-07 16:09 | 50.08493 | 19.83661 | 1289 ft | 144 kts | 256° |
| 2026-05-07 16:09 | 50.08284 | 19.82153 | 1093 ft | 144 kts | 255° |
| 2026-05-07 16:09 | 50.08070 | 19.80620 | 911 ft | 144 kts | 256° |
| 2026-05-07 16:10 | 50.07859 | 19.79106 | 801 ft | 138 kts | 256° |
| 2026-05-07 16:10 | 50.07684 | 19.77843 | 796 ft | 98 kts | 258° |
| 2026-05-07 16:10 | 50.07575 | 19.77062 | 802 ft | 46 kts | 258° |
| 2026-05-07 16:10 | 50.07519 | 19.76850 | 801 ft | 14 kts | 202° |
| 2026-05-07 16:11 | 50.07419 | 19.76865 | 799 ft | 15 kts | 168° |
| 2026-05-07 16:11 | 50.07322 | 19.76908 | 799 ft | 14 kts | 140° |
| 2026-05-07 16:11 | 50.07320 | 19.77051 | 799 ft | 14 kts | 78° |
| 2026-05-07 16:11 | 50.07340 | 19.77193 | 799 ft | 13 kts | 77° |
| 2026-05-07 16:12 | 50.07359 | 19.77329 | 799 ft | 13 kts | 77° |
| 2026-05-07 16:12 | 50.07377 | 19.77463 | 799 ft | 12 kts | 77° |
| 2026-05-07 16:12 | 50.07395 | 19.77592 | 799 ft | 12 kts | 78° |
| 2026-05-07 16:12 | 50.07412 | 19.77717 | 799 ft | 12 kts | 78° |
| 2026-05-07 16:13 | 50.07430 | 19.77842 | 799 ft | 11 kts | 78° |
| 2026-05-07 16:13 | 50.07447 | 19.77965 | 799 ft | 13 kts | 78° |
| 2026-05-07 16:13 | 50.07470 | 19.78132 | 799 ft | 20 kts | 78° |
| 2026-05-07 16:13 | 50.07505 | 19.78377 | 799 ft | 27 kts | 78° |
| 2026-05-07 16:14 | 50.07547 | 19.78684 | 799 ft | 32 kts | 78° |
| 2026-05-07 16:14 | 50.07599 | 19.79056 | 799 ft | 37 kts | 77° |
| 2026-05-07 16:14 | 50.07655 | 19.79454 | 799 ft | 34 kts | 78° |
| 2026-05-07 16:14 | 50.07676 | 19.79644 | 799 ft | 14 kts | 100° |
| 2026-05-07 16:15 | 50.07669 | 19.79681 | 799 ft | 2 kts | 94° |
| 2026-05-07 16:15 | 50.07685 | 19.79716 | 799 ft | 7 kts | 55° |
| 2026-05-07 16:15 | 50.07701 | 19.79821 | 799 ft | 12 kts | 99° |
| 2026-05-07 16:15 | 50.07648 | 19.79888 | 799 ft | 10 kts | 169° |
| 2026-05-07 16:16 | 50.07563 | 19.79916 | 799 ft | 15 kts | 168° |
| 2026-05-07 16:16 | 50.07518 | 19.80024 | 799 ft | 13 kts | 79° |
| 2026-05-07 16:16 | 50.07532 | 19.80133 | 799 ft | 12 kts | 78° |
| 2026-05-07 16:16 | 50.07521 | 19.80194 | 799 ft | 6 kts | 136° |
| 2026-05-07 16:17 | 50.07486 | 19.80213 | 799 ft | 0 kts | 167° |